createdAt,value
2018-10-18T00:01:18.029Z,83.06
2018-10-18T00:03:48.054Z,83.42
2018-10-18T00:06:18.036Z,82.33
2018-10-18T00:08:47.909Z,83.55
2018-10-18T00:11:17.837Z,83.81
2018-10-18T00:13:47.728Z,83.94
2018-10-18T00:16:17.746Z,83.37
2018-10-18T00:18:48.166Z,83.86
2018-10-18T00:21:18.098Z,83.37
2018-10-18T00:23:48.032Z,84.23
2018-10-18T00:26:18.120Z,83.95
2018-10-18T00:28:47.938Z,84.15
2018-10-18T00:31:17.839Z,83.94
2018-10-18T00:33:48.105Z,84.03
2018-10-18T00:36:18.397Z,84.48
2018-10-18T00:38:48.384Z,83.66
2018-10-18T00:41:18.437Z,84.41
2018-10-18T00:43:48.226Z,84.07
2018-10-18T00:46:18.334Z,84.70
2018-10-18T00:48:48.275Z,84.56
2018-10-18T00:51:18.215Z,83.82
2018-10-18T00:53:48.095Z,84.86
2018-10-18T00:56:17.907Z,84.42
2018-10-18T00:58:47.720Z,85.03
2018-10-18T01:01:17.698Z,84.18
2018-10-18T01:03:47.792Z,85.15
2018-10-18T01:06:17.892Z,84.62
2018-10-18T01:08:48.187Z,84.93
2018-10-18T01:11:18.150Z,84.44
2018-10-18T01:13:48.383Z,84.83
2018-10-18T01:16:18.179Z,85.53
2018-10-18T01:18:48.395Z,85.55
2018-10-18T01:21:18.189Z,85.16
2018-10-18T01:23:48.078Z,85.32
2018-10-18T01:26:18.047Z,85.01
2018-10-18T01:28:47.859Z,84.61
2018-10-18T01:31:17.694Z,84.82
2018-10-18T01:33:47.666Z,84.32
2018-10-18T01:36:17.657Z,84.17
2018-10-18T01:38:47.566Z,84.27
2018-10-18T01:41:17.481Z,84.15
2018-10-18T01:43:47.343Z,84.33
2018-10-18T01:46:17.298Z,84.17
2018-10-18T01:48:47.308Z,83.41
2018-10-18T01:51:17.250Z,83.96
2018-10-18T01:53:47.108Z,84.13
2018-10-18T01:56:17.222Z,84.04
2018-10-18T01:58:46.994Z,83.88
2018-10-18T02:01:17.355Z,83.74
2018-10-18T02:03:47.550Z,83.40
2018-10-18T02:06:17.697Z,83.50
2018-10-18T02:08:47.500Z,83.58
2018-10-18T02:11:17.297Z,83.69
2018-10-18T02:13:47.532Z,84.06
2018-10-18T02:16:17.628Z,84.02
2018-10-18T02:18:47.813Z,84.06
2018-10-18T02:21:17.750Z,83.85
2018-10-18T02:23:47.701Z,84.06
2018-10-18T02:26:17.752Z,83.30
2018-10-18T02:28:47.650Z,82.98
2018-10-18T02:31:17.526Z,84.01
2018-10-18T02:33:47.497Z,83.18
2018-10-18T02:36:17.552Z,82.92
2018-10-18T02:38:47.377Z,83.53
2018-10-18T02:41:17.218Z,83.62
2018-10-18T02:43:47.280Z,83.48
2018-10-18T02:46:17.601Z,84.12
2018-10-18T02:48:47.611Z,83.71
2018-10-18T02:51:17.570Z,83.56
2018-10-18T02:53:47.560Z,84.16
2018-10-18T02:56:17.464Z,83.52
2018-10-18T02:58:47.349Z,83.71
2018-10-18T03:01:17.293Z,83.02
2018-10-18T03:03:47.198Z,83.01
2018-10-18T03:06:17.465Z,83.05
2018-10-18T03:08:47.118Z,82.80
2018-10-18T03:11:17.089Z,83.58
2018-10-18T03:13:46.869Z,83.21
2018-10-18T03:16:16.983Z,83.63
2018-10-18T03:18:47.080Z,83.70
2018-10-18T03:21:16.995Z,83.67
2018-10-18T03:23:46.892Z,83.60
2018-10-18T03:26:16.792Z,84.00
2018-10-18T03:28:46.609Z,83.65
2018-10-18T03:31:16.752Z,84.14
2018-10-18T03:33:46.539Z,84.14
2018-10-18T03:36:17.102Z,83.30
2018-10-18T03:38:47.023Z,83.22
2018-10-18T03:41:17.025Z,83.01
2018-10-18T03:43:46.963Z,82.59
2018-10-18T03:46:16.857Z,83.28
2018-10-18T03:48:47.016Z,83.19
2018-10-18T03:51:17.085Z,82.69
2018-10-18T03:53:47.395Z,82.99
2018-10-18T03:56:17.205Z,83.55
2018-10-18T03:58:47.208Z,83.42
2018-10-18T04:01:17.307Z,83.72
2018-10-18T04:03:47.205Z,82.84
2018-10-18T04:06:17.820Z,82.77
2018-10-18T04:08:47.733Z,83.61
2018-10-18T04:11:17.522Z,83.03
2018-10-18T04:13:47.700Z,83.20
2018-10-18T04:16:17.699Z,82.98
2018-10-18T04:18:47.738Z,82.54
2018-10-18T04:21:17.736Z,82.44
2018-10-18T04:23:47.748Z,82.56
2018-10-18T04:26:17.691Z,82.86
2018-10-18T04:28:47.664Z,82.10
2018-10-18T04:31:17.480Z,82.50
2018-10-18T04:33:47.439Z,82.94
2018-10-18T04:36:17.568Z,83.38
2018-10-18T04:38:47.345Z,82.66
2018-10-18T04:41:17.205Z,83.24
2018-10-18T04:43:47.063Z,83.33
2018-10-18T04:46:16.930Z,83.36
2018-10-18T04:48:46.967Z,83.15
2018-10-18T04:51:17.626Z,83.36
2018-10-18T04:53:47.437Z,83.74
2018-10-18T04:56:17.867Z,82.88
2018-10-18T04:58:47.900Z,82.72
2018-10-18T05:01:17.958Z,82.80
2018-10-18T05:03:47.717Z,83.28
2018-10-18T05:06:17.612Z,83.32
2018-10-18T05:08:47.675Z,83.63
2018-10-18T05:11:17.603Z,83.09
2018-10-18T05:13:47.505Z,82.87
2018-10-18T05:16:17.420Z,83.73
2018-10-18T05:18:47.425Z,83.57
2018-10-18T05:21:17.455Z,83.10
2018-10-18T05:23:47.346Z,82.38
2018-10-18T05:26:17.273Z,82.56
2018-10-18T05:28:47.253Z,82.36
2018-10-18T05:31:17.300Z,82.56
2018-10-18T05:33:47.103Z,82.08
2018-10-18T05:36:16.981Z,81.84
2018-10-18T05:38:46.976Z,82.63
2018-10-18T05:41:16.890Z,81.72
2018-10-18T05:43:47.066Z,82.52
2018-10-18T05:46:17.172Z,82.26
2018-10-18T05:48:47.218Z,82.16
2018-10-18T05:51:17.194Z,82.94
2018-10-18T05:53:47.248Z,82.49
2018-10-18T05:56:17.446Z,82.49
2018-10-18T05:58:47.306Z,82.68
2018-10-18T06:01:17.303Z,82.35
2018-10-18T06:03:47.187Z,82.38
2018-10-18T06:06:17.066Z,81.96
2018-10-18T06:08:47.004Z,82.46
2018-10-18T06:11:31.150Z,82.31
2018-10-18T06:14:01.058Z,82.68
2018-10-18T06:16:31.206Z,82.71
2018-10-18T06:19:01.245Z,82.42
2018-10-18T06:21:31.059Z,82.47
2018-10-18T06:24:00.996Z,81.42
2018-10-18T06:26:30.902Z,81.06
2018-10-18T06:29:00.990Z,81.81
2018-10-18T06:31:31.093Z,81.54
2018-10-18T06:34:01.135Z,81.18
2018-10-18T06:36:30.943Z,81.91
2018-10-18T06:39:00.948Z,80.51
2018-10-18T06:41:30.913Z,80.85
2018-10-18T06:44:00.841Z,81.02
2018-10-18T06:46:30.950Z,80.24
2018-10-18T06:49:01.001Z,80.19
2018-10-18T06:51:30.945Z,80.05
2018-10-18T06:54:00.739Z,80.24
2018-10-18T06:56:30.872Z,80.03
2018-10-18T06:59:00.652Z,80.29
2018-10-18T07:01:30.622Z,79.82
2018-10-18T07:04:00.559Z,80.12
2018-10-18T07:06:30.390Z,80.73
2018-10-18T07:09:00.341Z,80.42
2018-10-18T07:11:30.333Z,80.18
2018-10-18T07:14:00.760Z,80.07
2018-10-18T07:16:31.492Z,80.92
2018-10-18T07:19:01.394Z,79.96
2018-10-18T07:21:31.291Z,79.80
2018-10-18T07:24:01.723Z,79.40
2018-10-18T07:26:31.931Z,78.83
2018-10-18T07:29:01.946Z,79.76
2018-10-18T07:31:31.893Z,79.30
2018-10-18T07:34:02.189Z,79.74
2018-10-18T07:36:32.491Z,79.83
2018-10-18T07:39:02.564Z,80.65
2018-10-18T07:41:32.517Z,80.95
2018-10-18T07:44:02.827Z,81.11
2018-10-18T07:46:32.664Z,80.60
2018-10-18T07:49:02.896Z,80.84
2018-10-18T07:51:32.709Z,80.91
2018-10-18T07:54:02.531Z,80.76
2018-10-18T07:56:32.866Z,79.94
2018-10-18T07:59:03.291Z,79.77
2018-10-18T08:01:33.206Z,79.94
2018-10-18T08:04:03.155Z,79.25
2018-10-18T08:06:33.489Z,79.65
2018-10-18T08:09:03.415Z,79.86
2018-10-18T08:11:33.292Z,80.18
2018-10-18T08:14:03.279Z,79.09
2018-10-18T08:16:33.370Z,79.48
2018-10-18T08:19:03.771Z,79.62
2018-10-18T08:21:33.838Z,78.67
2018-10-18T08:24:04.903Z,79.17
2018-10-18T08:26:34.885Z,78.09
2018-10-18T08:29:05.373Z,78.51
2018-10-18T08:31:35.531Z,78.20
2018-10-18T08:34:05.483Z,77.14
2018-10-18T08:36:35.567Z,76.95
2018-10-18T08:39:07.718Z,77.36
2018-10-18T08:41:37.696Z,76.16
2018-10-18T08:44:07.789Z,75.71
2018-10-18T08:46:37.612Z,75.83
2018-10-18T08:49:07.686Z,74.94
2018-10-18T08:51:37.552Z,75.79
2018-10-18T08:54:07.795Z,75.56
2018-10-18T08:56:37.733Z,76.25
2018-10-18T08:59:07.856Z,76.63
2018-10-18T09:01:37.725Z,75.92
2018-10-18T09:04:07.736Z,75.88
2018-10-18T09:06:37.599Z,75.92
2018-10-18T09:09:09.738Z,76.40
2018-10-18T09:11:39.813Z,75.57
2018-10-18T09:14:09.883Z,75.15
2018-10-18T09:16:39.704Z,73.49
2018-10-18T09:19:09.593Z,73.33
2018-10-18T09:21:40.488Z,72.59
2018-10-18T09:24:10.483Z,72.10
2018-10-18T09:26:40.342Z,71.12
2018-10-18T09:29:10.207Z,70.58
2018-10-18T09:31:40.204Z,70.79
2018-10-18T09:34:10.100Z,70.53
2018-10-18T09:36:40.123Z,71.12
2018-10-18T09:39:10.541Z,70.20
2018-10-18T09:41:40.375Z,70.25
2018-10-18T09:44:10.381Z,70.14
2018-10-18T09:46:40.255Z,69.80
2018-10-18T09:49:10.326Z,68.48
2018-10-18T09:51:40.374Z,68.20
2018-10-18T09:54:10.480Z,67.69
2018-10-18T09:56:40.415Z,68.12
2018-10-18T09:59:10.360Z,67.74
2018-10-18T10:01:45.349Z,68.75
2018-10-18T10:04:15.404Z,67.15
2018-10-18T10:06:45.266Z,67.75
2018-10-18T10:09:15.228Z,66.49
2018-10-18T10:11:45.584Z,66.58
2018-10-18T10:14:15.329Z,66.18
2018-10-18T10:16:45.070Z,66.88
2018-10-18T10:19:15.089Z,66.10
2018-10-18T10:21:44.922Z,66.19
2018-10-18T10:24:14.903Z,68.04
2018-10-18T10:26:45.139Z,69.42
2018-10-18T10:29:15.114Z,68.89
2018-10-18T10:31:45.257Z,69.02
2018-10-18T10:34:16.043Z,69.63
2018-10-18T10:36:46.019Z,69.91
2018-10-18T10:39:15.873Z,69.78
2018-10-18T10:41:45.735Z,69.48
2018-10-18T10:44:15.774Z,68.81
2018-10-18T10:46:45.677Z,67.75
2018-10-18T10:49:15.994Z,67.18
2018-10-18T10:51:45.978Z,66.85
2018-10-18T10:54:15.833Z,66.27
2018-10-18T10:56:45.806Z,64.41
2018-10-18T10:59:17.806Z,65.28
2018-10-18T11:01:47.675Z,64.51
2018-10-18T11:04:17.591Z,64.08
2018-10-18T11:06:47.557Z,64.57
2018-10-18T11:09:17.750Z,64.95
2018-10-18T11:11:47.550Z,65.30
2018-10-18T11:14:17.842Z,65.18
2018-10-18T11:16:47.694Z,65.73
2018-10-18T11:19:17.547Z,65.64
2018-10-18T11:21:47.422Z,65.95
2018-10-18T11:24:17.407Z,65.97
2018-10-18T11:26:47.401Z,65.16
2018-10-18T11:29:17.791Z,64.80
2018-10-18T11:31:48.069Z,64.33
2018-10-18T11:34:18.050Z,63.01
2018-10-18T11:36:48.409Z,63.61
2018-10-18T11:39:18.262Z,63.30
2018-10-18T11:41:48.578Z,63.96
2018-10-18T11:44:18.809Z,64.65
2018-10-18T11:46:48.526Z,65.76
2018-10-18T11:49:18.574Z,66.26
2018-10-18T11:51:48.905Z,65.95
2018-10-18T11:54:18.658Z,65.85
2018-10-18T11:56:48.826Z,65.73
2018-10-18T11:59:18.812Z,65.86
2018-10-18T12:01:52.724Z,65.66
2018-10-18T12:04:22.809Z,64.69
2018-10-18T12:06:52.781Z,64.64
2018-10-18T12:09:22.769Z,63.82
2018-10-18T12:11:52.628Z,64.54
2018-10-18T12:14:22.501Z,65.29
2018-10-18T12:16:52.517Z,66.08
2018-10-18T12:19:22.522Z,66.75
2018-10-18T12:21:52.328Z,66.62
2018-10-18T12:24:22.623Z,67.44
2018-10-18T12:26:52.734Z,68.09
2018-10-18T12:29:22.527Z,67.36
2018-10-18T12:31:52.588Z,67.92
2018-10-18T12:34:22.653Z,66.85
2018-10-18T12:36:52.788Z,66.75
2018-10-18T12:39:22.841Z,67.29
2018-10-18T12:41:52.960Z,68.22
2018-10-18T12:44:22.769Z,68.98
2018-10-18T12:46:52.543Z,69.43
2018-10-18T12:49:22.595Z,68.22
2018-10-18T12:51:52.657Z,68.65
2018-10-18T12:54:22.925Z,68.50
2018-10-18T12:56:52.806Z,68.89
2018-10-18T12:59:22.828Z,69.27
2018-10-18T13:01:53.192Z,69.39
2018-10-18T13:04:23.095Z,69.01
2018-10-18T13:06:52.973Z,69.38
2018-10-18T13:09:22.946Z,69.65
2018-10-18T13:11:52.794Z,69.09
2018-10-18T13:14:22.846Z,69.35
2018-10-18T13:16:52.856Z,69.80
2018-10-18T13:19:23.214Z,70.24
2018-10-18T13:21:53.187Z,69.69
2018-10-18T13:24:23.734Z,69.77
2018-10-18T13:26:53.867Z,69.89
2018-10-18T13:29:24.160Z,70.34
2018-10-18T13:31:54.224Z,71.43
2018-10-18T13:34:24.003Z,72.25
2018-10-18T13:36:54.188Z,71.75
2018-10-18T13:39:24.180Z,72.05
2018-10-18T13:41:54.249Z,72.66
2018-10-18T13:44:24.169Z,72.51
2018-10-18T13:46:54.054Z,72.46
2018-10-18T13:49:24.244Z,72.10
2018-10-18T13:51:54.284Z,71.34
2018-10-18T13:54:24.221Z,71.15
2018-10-18T13:56:54.285Z,70.60
2018-10-18T13:59:40.908Z,70.08
2018-10-18T14:02:11.234Z,70.09
2018-10-18T14:04:41.114Z,69.51
2018-10-18T14:07:11.337Z,68.89
2018-10-18T14:09:41.412Z,68.83
2018-10-18T14:12:11.767Z,67.47
2018-10-18T14:14:42.481Z,67.66
2018-10-18T14:17:12.489Z,68.76
2018-10-18T14:19:42.662Z,68.78
2018-10-18T14:22:12.479Z,70.28
2018-10-18T14:24:42.654Z,70.20
2018-10-18T14:27:12.489Z,70.14
2018-10-18T14:29:42.446Z,70.64
2018-10-18T14:32:12.433Z,70.63
2018-10-18T14:34:42.395Z,70.96
2018-10-18T14:37:12.347Z,70.35
2018-10-18T14:39:42.269Z,70.59
2018-10-18T14:42:12.382Z,70.23
2018-10-18T14:44:42.626Z,71.82
2018-10-18T14:47:12.574Z,72.46
2018-10-18T14:49:42.541Z,73.04
2018-10-18T14:52:12.775Z,74.34
2018-10-18T14:54:42.781Z,75.65
2018-10-18T14:57:12.989Z,74.69
2018-10-18T14:59:43.357Z,74.85
2018-10-18T15:02:13.842Z,74.61
2018-10-18T15:04:43.693Z,75.00
2018-10-18T15:07:14.008Z,75.63
2018-10-18T15:09:43.897Z,75.04
2018-10-18T15:12:13.871Z,74.96
2018-10-18T15:14:43.920Z,75.65
2018-10-18T15:17:13.995Z,74.82
2018-10-18T15:19:44.331Z,75.62
2018-10-18T15:22:14.365Z,75.52
2018-10-18T15:24:44.431Z,76.33
2018-10-18T15:27:14.572Z,75.71
2018-10-18T15:29:44.427Z,75.32
2018-10-18T15:32:14.529Z,75.92
2018-10-18T15:34:44.317Z,75.81
2018-10-18T15:37:14.622Z,74.87
2018-10-18T15:39:44.520Z,75.10
2018-10-18T15:42:14.890Z,75.74
2018-10-18T15:44:44.878Z,77.10
2018-10-18T15:47:15.036Z,78.14
2018-10-18T15:49:45.061Z,78.09
2018-10-18T15:52:15.052Z,78.48
2018-10-18T15:54:45.065Z,78.97
2018-10-18T15:57:15.062Z,79.74
2018-10-18T15:59:45.000Z,80.34
2018-10-18T16:02:15.101Z,79.74
2018-10-18T16:04:45.207Z,80.29
2018-10-18T16:07:15.267Z,80.39
2018-10-18T16:09:45.060Z,80.55
2018-10-18T16:12:14.963Z,79.63
2018-10-18T16:14:45.184Z,79.87
2018-10-18T16:17:15.385Z,79.85
2018-10-18T16:19:45.519Z,81.30
2018-10-18T16:22:15.374Z,81.65
2018-10-18T16:24:45.764Z,81.90
2018-10-18T16:27:15.773Z,81.52
2018-10-18T16:29:45.565Z,82.33
2018-10-18T16:32:15.494Z,82.74
2018-10-18T16:34:45.631Z,82.40
2018-10-18T16:37:15.797Z,82.62
2018-10-18T16:39:46.106Z,81.56
2018-10-18T16:42:16.330Z,82.52
2018-10-18T16:44:46.246Z,81.64
2018-10-18T16:47:16.088Z,82.79
2018-10-18T16:49:46.465Z,83.74
2018-10-18T16:52:16.514Z,83.07
2018-10-18T16:54:46.413Z,83.36
2018-10-18T16:57:16.454Z,83.14
2018-10-18T16:59:46.689Z,83.31
2018-10-18T17:02:17.326Z,83.30
2018-10-18T17:04:47.705Z,82.74
2018-10-18T17:07:17.618Z,82.95
2018-10-18T17:09:47.781Z,83.05
2018-10-18T17:12:17.982Z,83.31
2018-10-18T17:14:47.923Z,83.81
2018-10-18T17:17:18.016Z,83.58
2018-10-18T17:19:48.112Z,83.32
2018-10-18T17:22:18.025Z,83.56
2018-10-18T17:24:48.197Z,83.22
2018-10-18T17:27:18.358Z,82.56
2018-10-18T17:29:48.516Z,83.59
2018-10-18T17:32:19.054Z,83.13
2018-10-18T17:34:49.104Z,82.28
2018-10-18T17:37:19.124Z,83.30
2018-10-18T17:39:48.987Z,83.56
2018-10-18T17:42:18.987Z,82.42
2018-10-18T17:44:48.860Z,82.19
2018-10-18T17:47:18.851Z,82.21
2018-10-18T17:49:48.910Z,82.68
2018-10-18T17:52:18.868Z,82.52
2018-10-18T17:54:48.758Z,81.85
2018-10-18T17:57:18.575Z,82.35
2018-10-18T17:59:48.566Z,82.20
2018-10-18T18:02:18.566Z,81.91
2018-10-18T18:04:48.315Z,82.40
2018-10-18T18:07:18.200Z,82.44
2018-10-18T18:09:48.116Z,82.74
2018-10-18T18:12:18.136Z,82.27
2018-10-18T18:14:47.939Z,81.54
2018-10-18T18:17:17.923Z,82.04
2018-10-18T18:19:47.737Z,82.37
2018-10-18T18:22:17.609Z,81.97
2018-10-18T18:24:47.538Z,82.42
2018-10-18T18:27:17.844Z,81.79
2018-10-18T18:29:47.799Z,82.25
2018-10-18T18:32:17.539Z,81.18
2018-10-18T18:34:47.396Z,81.32
2018-10-18T18:37:17.257Z,80.89
2018-10-18T18:39:47.202Z,81.32
2018-10-18T18:42:17.141Z,80.22
2018-10-18T18:44:47.127Z,79.90
2018-10-18T18:47:16.938Z,79.72
2018-10-18T18:49:47.063Z,79.74
2018-10-18T18:52:16.942Z,78.80
2018-10-18T18:54:46.903Z,77.64
2018-10-18T18:57:16.648Z,76.70
2018-10-18T18:59:46.537Z,75.63
2018-10-18T19:02:16.454Z,75.75
2018-10-18T19:04:46.229Z,75.14
2018-10-18T19:07:16.266Z,75.92
2018-10-18T19:09:46.112Z,75.86
2018-10-18T19:12:16.017Z,75.90
2018-10-18T19:14:45.994Z,75.79
2018-10-18T19:17:15.983Z,75.89
2018-10-18T19:19:45.865Z,75.99
2018-10-18T19:22:15.660Z,76.24
2018-10-18T19:24:45.570Z,75.50
2018-10-18T19:27:15.488Z,75.23
2018-10-18T19:29:45.318Z,75.56
2018-10-18T19:32:15.416Z,75.75
2018-10-18T19:34:45.523Z,76.24
2018-10-18T19:37:15.560Z,75.84
2018-10-18T19:39:45.443Z,76.33
2018-10-18T19:42:15.372Z,76.34
2018-10-18T19:44:45.585Z,76.22
2018-10-18T19:47:15.541Z,76.45
2018-10-18T19:49:45.646Z,77.75
2018-10-18T19:52:15.540Z,77.69
2018-10-18T19:54:45.578Z,77.21
2018-10-18T19:57:15.750Z,78.29
2018-10-18T19:59:45.672Z,77.91
2018-10-18T20:02:15.675Z,77.84
2018-10-18T20:04:45.656Z,77.62
2018-10-18T20:07:15.607Z,76.86
2018-10-18T20:09:45.552Z,77.87
2018-10-18T20:12:15.509Z,77.18
2018-10-18T20:14:45.358Z,77.49
2018-10-18T20:17:15.258Z,76.14
2018-10-18T20:19:45.322Z,76.01
2018-10-18T20:22:15.147Z,75.46
2018-10-18T20:24:45.190Z,76.55
2018-10-18T20:27:15.139Z,77.84
2018-10-18T20:29:44.915Z,79.06
2018-10-18T20:32:14.877Z,77.81
2018-10-18T20:34:44.972Z,77.57
2018-10-18T20:37:14.853Z,77.30
2018-10-18T20:39:44.765Z,76.28
2018-10-18T20:42:14.714Z,76.83
2018-10-18T20:44:44.703Z,75.83
2018-10-18T20:47:15.136Z,76.33
2018-10-18T20:49:44.877Z,76.03
2018-10-18T20:52:14.982Z,76.03
2018-10-18T20:54:45.060Z,75.69
2018-10-18T20:57:14.967Z,75.35
2018-10-18T20:59:44.974Z,75.19
2018-10-18T21:02:14.873Z,74.48
2018-10-18T21:04:45.081Z,74.94
2018-10-18T21:07:15.030Z,74.28
2018-10-18T21:09:45.034Z,74.82
2018-10-18T21:12:14.874Z,73.98
2018-10-18T21:14:44.827Z,74.53
2018-10-18T21:17:15.151Z,73.95
2018-10-18T21:19:44.861Z,75.00
2018-10-18T21:22:14.880Z,74.03
2018-10-18T21:24:45.025Z,74.11
2018-10-18T21:27:15.378Z,74.52
2018-10-18T21:29:45.396Z,73.95
2018-10-18T21:32:15.291Z,74.76
2018-10-18T21:34:45.233Z,74.98
2018-10-18T21:37:15.154Z,74.76
2018-10-18T21:39:45.279Z,75.07
2018-10-18T21:42:15.588Z,74.93
2018-10-18T21:44:46.224Z,74.67
2018-10-18T21:47:17.351Z,74.20
2018-10-18T21:49:47.387Z,74.78
2018-10-18T21:52:17.313Z,73.85
2018-10-18T21:54:47.261Z,74.55
2018-10-18T21:57:17.350Z,73.53
2018-10-18T21:59:47.400Z,74.39
2018-10-18T22:02:17.424Z,73.89
2018-10-18T22:04:47.323Z,74.63
2018-10-18T22:07:17.337Z,74.66
2018-10-18T22:09:47.078Z,73.93
2018-10-18T22:12:16.966Z,74.22
2018-10-18T22:14:47.031Z,74.30
2018-10-18T22:17:16.976Z,74.28
2018-10-18T22:19:46.989Z,74.77
2018-10-18T22:22:17.597Z,74.22
2018-10-18T22:24:47.601Z,74.82
2018-10-18T22:27:17.628Z,74.79
2018-10-18T22:29:47.412Z,74.85
2018-10-18T22:32:17.456Z,74.17
2018-10-18T22:34:47.566Z,73.88
2018-10-18T22:37:17.593Z,74.12
2018-10-18T22:39:47.510Z,75.01
2018-10-18T22:42:17.774Z,74.64
2018-10-18T22:44:48.006Z,74.70
2018-10-18T22:47:18.204Z,74.53
2018-10-18T22:49:48.454Z,75.06
2018-10-18T22:52:18.399Z,74.66
2018-10-18T22:54:48.557Z,75.09
2018-10-18T22:57:18.925Z,74.30
2018-10-18T22:59:48.878Z,74.85
2018-10-18T23:02:18.757Z,75.26
2018-10-18T23:04:48.700Z,74.26
2018-10-18T23:07:18.632Z,75.26
2018-10-18T23:09:48.645Z,75.26
2018-10-18T23:12:18.576Z,75.47
2018-10-18T23:14:48.449Z,75.19
2018-10-18T23:17:18.428Z,75.53
2018-10-18T23:19:48.278Z,75.57
2018-10-18T23:22:18.288Z,75.92
2018-10-18T23:24:48.468Z,75.35
2018-10-18T23:27:17.448Z,75.60
2018-10-18T23:29:47.642Z,75.96
2018-10-18T23:32:17.457Z,75.16
2018-10-18T23:34:47.398Z,75.42
2018-10-18T23:37:17.366Z,75.33
2018-10-18T23:39:47.249Z,74.97
2018-10-18T23:42:17.174Z,74.95
2018-10-18T23:44:47.148Z,75.50
2018-10-18T23:47:17.006Z,75.92
2018-10-18T23:49:46.870Z,75.60
2018-10-18T23:52:16.873Z,76.27
2018-10-18T23:54:46.901Z,75.87
2018-10-18T23:57:16.981Z,75.85
2018-10-18T23:59:46.725Z,76.28
